sensor_id;sensor_type;location;lat;lon;timestamp;P1;durP1;ratioP1;P2;durP2;ratioP2
22250;SDS011;59348;52.158;5.588;2023-04-24T00:01:38;1.10;;;1.00;;
22250;SDS011;59348;52.158;5.588;2023-04-24T00:04:05;1.30;;;1.20;;
22250;SDS011;59348;52.158;5.588;2023-04-24T00:06:36;1.23;;;1.13;;
22250;SDS011;59348;52.158;5.588;2023-04-24T00:09:03;2.00;;;1.40;;
22250;SDS011;59348;52.158;5.588;2023-04-24T00:11:31;1.63;;;1.42;;
22250;SDS011;59348;52.158;5.588;2023-04-24T00:13:59;2.35;;;1.55;;
22250;SDS011;59348;52.158;5.588;2023-04-24T00:16:27;2.38;;;1.70;;
22250;SDS011;59348;52.158;5.588;2023-04-24T00:18:54;2.45;;;2.13;;
22250;SDS011;59348;52.158;5.588;2023-04-24T00:21:22;3.03;;;2.40;;
22250;SDS011;59348;52.158;5.588;2023-04-24T00:23:50;3.80;;;3.25;;
22250;SDS011;59348;52.158;5.588;2023-04-24T00:26:18;3.95;;;3.58;;
22250;SDS011;59348;52.158;5.588;2023-04-24T00:28:45;4.18;;;3.60;;
22250;SDS011;59348;52.158;5.588;2023-04-24T00:31:14;4.07;;;3.70;;
22250;SDS011;59348;52.158;5.588;2023-04-24T00:33:41;3.83;;;3.38;;
22250;SDS011;59348;52.158;5.588;2023-04-24T00:36:08;5.47;;;3.60;;
22250;SDS011;59348;52.158;5.588;2023-04-24T00:38:35;3.80;;;3.50;;
22250;SDS011;59348;52.158;5.588;2023-04-24T00:41:03;4.40;;;4.00;;
22250;SDS011;59348;52.158;5.588;2023-04-24T00:43:30;4.80;;;3.80;;
22250;SDS011;59348;52.158;5.588;2023-04-24T00:45:57;4.95;;;4.10;;
22250;SDS011;59348;52.158;5.588;2023-04-24T00:48:28;4.50;;;4.10;;
22250;SDS011;59348;52.158;5.588;2023-04-24T00:50:55;5.05;;;4.57;;
22250;SDS011;59348;52.158;5.588;2023-04-24T00:53:23;4.85;;;4.20;;
22250;SDS011;59348;52.158;5.588;2023-04-24T00:55:51;5.00;;;4.00;;
22250;SDS011;59348;52.158;5.588;2023-04-24T00:58:18;4.60;;;3.97;;
22250;SDS011;59348;52.158;5.588;2023-04-24T01:00:45;4.20;;;3.90;;
22250;SDS011;59348;52.158;5.588;2023-04-24T01:03:13;4.80;;;4.40;;
22250;SDS011;59348;52.158;5.588;2023-04-24T01:05:42;4.78;;;4.20;;
22250;SDS011;59348;52.158;5.588;2023-04-24T01:08:09;4.53;;;4.13;;
22250;SDS011;59348;52.158;5.588;2023-04-24T01:10:36;4.60;;;4.20;;
22250;SDS011;59348;52.158;5.588;2023-04-24T01:13:05;5.22;;;4.45;;
22250;SDS011;59348;52.158;5.588;2023-04-24T01:15:34;6.70;;;4.05;;
22250;SDS011;59348;52.158;5.588;2023-04-24T01:18:02;5.05;;;4.55;;
22250;SDS011;59348;52.158;5.588;2023-04-24T01:20:29;5.60;;;5.00;;
22250;SDS011;59348;52.158;5.588;2023-04-24T01:22:59;10.07;;;5.53;;
22250;SDS011;59348;52.158;5.588;2023-04-24T01:25:26;6.10;;;5.47;;
22250;SDS011;59348;52.158;5.588;2023-04-24T01:27:54;5.90;;;5.40;;
22250;SDS011;59348;52.158;5.588;2023-04-24T01:30:21;5.88;;;5.28;;
22250;SDS011;59348;52.158;5.588;2023-04-24T01:32:48;6.47;;;5.68;;
22250;SDS011;59348;52.158;5.588;2023-04-24T01:35:16;6.75;;;5.80;;
22250;SDS011;59348;52.158;5.588;2023-04-24T01:37:43;7.40;;;6.20;;
22250;SDS011;59348;52.158;5.588;2023-04-24T01:40:12;6.95;;;6.25;;
22250;SDS011;59348;52.158;5.588;2023-04-24T01:42:40;7.32;;;6.13;;
22250;SDS011;59348;52.158;5.588;2023-04-24T01:45:08;7.07;;;6.10;;
22250;SDS011;59348;52.158;5.588;2023-04-24T01:47:37;8.73;;;6.50;;
22250;SDS011;59348;52.158;5.588;2023-04-24T01:50:05;9.05;;;6.85;;
22250;SDS011;59348;52.158;5.588;2023-04-24T01:52:32;8.10;;;6.70;;
22250;SDS011;59348;52.158;5.588;2023-04-24T01:55:01;8.10;;;6.95;;
22250;SDS011;59348;52.158;5.588;2023-04-24T01:57:30;10.55;;;7.00;;
22250;SDS011;59348;52.158;5.588;2023-04-24T01:59:57;7.95;;;7.13;;
22250;SDS011;59348;52.158;5.588;2023-04-24T02:02:25;7.90;;;7.10;;
22250;SDS011;59348;52.158;5.588;2023-04-24T02:04:53;9.27;;;7.53;;
22250;SDS011;59348;52.158;5.588;2023-04-24T02:07:21;9.32;;;7.68;;
22250;SDS011;59348;52.158;5.588;2023-04-24T02:09:48;9.50;;;8.18;;
22250;SDS011;59348;52.158;5.588;2023-04-24T02:12:16;10.15;;;8.63;;
22250;SDS011;59348;52.158;5.588;2023-04-24T02:14:44;9.20;;;8.25;;
22250;SDS011;59348;52.158;5.588;2023-04-24T02:17:12;8.95;;;8.07;;
22250;SDS011;59348;52.158;5.588;2023-04-24T02:19:40;10.27;;;8.50;;
22250;SDS011;59348;52.158;5.588;2023-04-24T02:22:07;9.73;;;8.00;;
22250;SDS011;59348;52.158;5.588;2023-04-24T02:24:35;9.75;;;7.80;;
22250;SDS011;59348;52.158;5.588;2023-04-24T02:27:03;7.97;;;7.18;;
22250;SDS011;59348;52.158;5.588;2023-04-24T02:29:31;7.28;;;6.57;;
22250;SDS011;59348;52.158;5.588;2023-04-24T02:31:59;6.70;;;6.00;;
22250;SDS011;59348;52.158;5.588;2023-04-24T02:34:26;6.10;;;5.35;;
22250;SDS011;59348;52.158;5.588;2023-04-24T02:36:54;6.25;;;5.50;;
22250;SDS011;59348;52.158;5.588;2023-04-24T02:39:21;6.80;;;5.50;;
22250;SDS011;59348;52.158;5.588;2023-04-24T02:41:48;6.15;;;5.55;;
22250;SDS011;59348;52.158;5.588;2023-04-24T02:44:15;6.28;;;5.68;;
22250;SDS011;59348;52.158;5.588;2023-04-24T02:46:43;6.85;;;6.15;;
22250;SDS011;59348;52.158;5.588;2023-04-24T02:49:12;7.65;;;6.40;;
22250;SDS011;59348;52.158;5.588;2023-04-24T02:51:39;7.22;;;6.50;;
22250;SDS011;59348;52.158;5.588;2023-04-24T02:54:07;7.47;;;6.72;;
22250;SDS011;59348;52.158;5.588;2023-04-24T02:56:35;7.10;;;6.40;;
22250;SDS011;59348;52.158;5.588;2023-04-24T02:59:02;7.30;;;6.60;;
22250;SDS011;59348;52.158;5.588;2023-04-24T03:01:29;7.00;;;6.30;;
22250;SDS011;59348;52.158;5.588;2023-04-24T03:03:57;8.20;;;6.88;;
22250;SDS011;59348;52.158;5.588;2023-04-24T03:06:25;7.85;;;7.05;;
22250;SDS011;59348;52.158;5.588;2023-04-24T03:08:53;7.95;;;7.15;;
22250;SDS011;59348;52.158;5.588;2023-04-24T03:11:20;8.82;;;7.70;;
22250;SDS011;59348;52.158;5.588;2023-04-24T03:13:48;9.60;;;7.35;;
22250;SDS011;59348;52.158;5.588;2023-04-24T03:16:15;9.20;;;7.75;;
22250;SDS011;59348;52.158;5.588;2023-04-24T03:18:42;8.27;;;7.47;;
22250;SDS011;59348;52.158;5.588;2023-04-24T03:21:09;10.30;;;8.10;;
22250;SDS011;59348;52.158;5.588;2023-04-24T03:23:38;8.65;;;7.60;;
22250;SDS011;59348;52.158;5.588;2023-04-24T03:26:05;8.93;;;7.80;;
22250;SDS011;59348;52.158;5.588;2023-04-24T03:28:33;8.00;;;7.20;;
22250;SDS011;59348;52.158;5.588;2023-04-24T03:31:00;7.72;;;6.95;;
22250;SDS011;59348;52.158;5.588;2023-04-24T03:33:27;8.23;;;6.65;;
22250;SDS011;59348;52.158;5.588;2023-04-24T03:35:55;8.02;;;7.28;;
22250;SDS011;59348;52.158;5.588;2023-04-24T03:38:22;7.95;;;7.15;;
22250;SDS011;59348;52.158;5.588;2023-04-24T03:40:50;7.72;;;6.93;;
22250;SDS011;59348;52.158;5.588;2023-04-24T03:43:18;8.38;;;6.90;;
22250;SDS011;59348;52.158;5.588;2023-04-24T03:45:45;8.52;;;6.93;;
22250;SDS011;59348;52.158;5.588;2023-04-24T03:48:12;8.10;;;7.30;;
22250;SDS011;59348;52.158;5.588;2023-04-24T03:50:39;8.60;;;6.95;;
22250;SDS011;59348;52.158;5.588;2023-04-24T03:53:07;8.43;;;7.07;;
22250;SDS011;59348;52.158;5.588;2023-04-24T03:55:34;8.85;;;7.60;;
22250;SDS011;59348;52.158;5.588;2023-04-24T03:58:03;8.10;;;7.30;;
22250;SDS011;59348;52.158;5.588;2023-04-24T04:00:31;7.90;;;7.10;;
22250;SDS011;59348;52.158;5.588;2023-04-24T04:02:58;10.25;;;8.05;;
22250;SDS011;59348;52.158;5.588;2023-04-24T04:05:25;9.90;;;8.13;;
22250;SDS011;59348;52.158;5.588;2023-04-24T04:07:53;8.80;;;7.70;;
22250;SDS011;59348;52.158;5.588;2023-04-24T04:10:20;10.07;;;8.05;;
22250;SDS011;59348;52.158;5.588;2023-04-24T04:12:47;10.23;;;8.02;;
22250;SDS011;59348;52.158;5.588;2023-04-24T04:15:16;8.73;;;7.88;;
22250;SDS011;59348;52.158;5.588;2023-04-24T04:17:43;9.68;;;8.32;;
22250;SDS011;59348;52.158;5.588;2023-04-24T04:20:11;11.75;;;8.32;;
22250;SDS011;59348;52.158;5.588;2023-04-24T04:22:38;9.15;;;8.13;;
22250;SDS011;59348;52.158;5.588;2023-04-24T04:25:06;9.63;;;8.30;;
22250;SDS011;59348;52.158;5.588;2023-04-24T04:27:34;10.65;;;9.02;;
22250;SDS011;59348;52.158;5.588;2023-04-24T04:30:01;10.20;;;9.20;;
22250;SDS011;59348;52.158;5.588;2023-04-24T04:32:31;9.68;;;8.68;;
22250;SDS011;59348;52.158;5.588;2023-04-24T04:34:59;10.40;;;8.23;;
22250;SDS011;59348;52.158;5.588;2023-04-24T04:37:28;8.60;;;7.70;;
22250;SDS011;59348;52.158;5.588;2023-04-24T04:39:56;8.07;;;7.00;;
22250;SDS011;59348;52.158;5.588;2023-04-24T04:42:24;7.55;;;6.72;;
22250;SDS011;59348;52.158;5.588;2023-04-24T04:44:52;7.75;;;6.63;;
22250;SDS011;59348;52.158;5.588;2023-04-24T04:47:20;6.50;;;5.90;;
22250;SDS011;59348;52.158;5.588;2023-04-24T04:49:49;6.25;;;5.63;;
22250;SDS011;59348;52.158;5.588;2023-04-24T04:52:17;6.40;;;5.68;;
22250;SDS011;59348;52.158;5.588;2023-04-24T04:54:44;6.35;;;5.63;;
22250;SDS011;59348;52.158;5.588;2023-04-24T04:57:12;6.82;;;6.10;;
22250;SDS011;59348;52.158;5.588;2023-04-24T04:59:39;6.15;;;5.50;;
22250;SDS011;59348;52.158;5.588;2023-04-24T05:02:07;6.50;;;5.80;;
22250;SDS011;59348;52.158;5.588;2023-04-24T05:04:34;6.10;;;5.50;;
22250;SDS011;59348;52.158;5.588;2023-04-24T05:07:03;7.07;;;6.10;;
22250;SDS011;59348;52.158;5.588;2023-04-24T05:09:30;6.68;;;5.65;;
22250;SDS011;59348;52.158;5.588;2023-04-24T05:11:57;7.18;;;5.30;;
22250;SDS011;59348;52.158;5.588;2023-04-24T05:14:25;5.60;;;5.10;;
22250;SDS011;59348;52.158;5.588;2023-04-24T05:16:52;11.05;;;5.75;;
22250;SDS011;59348;52.158;5.588;2023-04-24T05:19:20;5.95;;;5.35;;
22250;SDS011;59348;52.158;5.588;2023-04-24T05:21:47;5.47;;;4.93;;
22250;SDS011;59348;52.158;5.588;2023-04-24T05:24:16;6.93;;;5.32;;
22250;SDS011;59348;52.158;5.588;2023-04-24T05:26:43;6.10;;;5.50;;
22250;SDS011;59348;52.158;5.588;2023-04-24T05:29:10;8.70;;;5.80;;
22250;SDS011;59348;52.158;5.588;2023-04-24T05:31:38;9.02;;;5.63;;
22250;SDS011;59348;52.158;5.588;2023-04-24T05:34:05;9.32;;;6.10;;
22250;SDS011;59348;52.158;5.588;2023-04-24T05:36:32;7.50;;;6.13;;
22250;SDS011;59348;52.158;5.588;2023-04-24T05:38:59;7.50;;;5.88;;
22250;SDS011;59348;52.158;5.588;2023-04-24T05:41:29;7.50;;;6.18;;
22250;SDS011;59348;52.158;5.588;2023-04-24T05:43:56;6.90;;;5.68;;
22250;SDS011;59348;52.158;5.588;2023-04-24T05:46:23;6.70;;;5.60;;
22250;SDS011;59348;52.158;5.588;2023-04-24T05:48:50;9.45;;;5.97;;
22250;SDS011;59348;52.158;5.588;2023-04-24T05:51:18;7.85;;;6.35;;
22250;SDS011;59348;52.158;5.588;2023-04-24T05:53:46;9.95;;;6.45;;
22250;SDS011;59348;52.158;5.588;2023-04-24T05:56:13;6.35;;;5.60;;
22250;SDS011;59348;52.158;5.588;2023-04-24T05:58:42;8.50;;;6.13;;
22250;SDS011;59348;52.158;5.588;2023-04-24T06:01:10;7.07;;;6.07;;
22250;SDS011;59348;52.158;5.588;2023-04-24T06:03:37;7.25;;;5.85;;
22250;SDS011;59348;52.158;5.588;2023-04-24T06:06:05;7.38;;;5.90;;
22250;SDS011;59348;52.158;5.588;2023-04-24T06:08:32;6.72;;;5.85;;
22250;SDS011;59348;52.158;5.588;2023-04-24T06:11:00;8.45;;;5.65;;
22250;SDS011;59348;52.158;5.588;2023-04-24T06:13:27;7.28;;;5.85;;
22250;SDS011;59348;52.158;5.588;2023-04-24T06:15:56;8.10;;;6.20;;
22250;SDS011;59348;52.158;5.588;2023-04-24T06:18:23;6.88;;;6.03;;
22250;SDS011;59348;52.158;5.588;2023-04-24T06:20:50;8.20;;;6.60;;
22250;SDS011;59348;52.158;5.588;2023-04-24T06:23:18;7.97;;;6.57;;
22250;SDS011;59348;52.158;5.588;2023-04-24T06:25:45;10.07;;;6.50;;
22250;SDS011;59348;52.158;5.588;2023-04-24T06:28:12;9.40;;;6.15;;
22250;SDS011;59348;52.158;5.588;2023-04-24T06:30:39;6.68;;;5.32;;
22250;SDS011;59348;52.158;5.588;2023-04-24T06:33:09;7.10;;;4.68;;
22250;SDS011;59348;52.158;5.588;2023-04-24T06:35:37;6.65;;;4.20;;
22250;SDS011;59348;52.158;5.588;2023-04-24T06:38:04;5.78;;;3.28;;
22250;SDS011;59348;52.158;5.588;2023-04-24T06:40:31;3.63;;;2.70;;
22250;SDS011;59348;52.158;5.588;2023-04-24T06:42:58;4.40;;;2.45;;
22250;SDS011;59348;52.158;5.588;2023-04-24T06:45:27;4.93;;;2.92;;
22250;SDS011;59348;52.158;5.588;2023-04-24T06:47:55;3.88;;;2.22;;
22250;SDS011;59348;52.158;5.588;2023-04-24T06:50:23;2.95;;;2.40;;
22250;SDS011;59348;52.158;5.588;2023-04-24T06:52:51;2.50;;;2.30;;
22250;SDS011;59348;52.158;5.588;2023-04-24T06:55:18;4.45;;;3.28;;
22250;SDS011;59348;52.158;5.588;2023-04-24T06:57:45;5.95;;;3.60;;
22250;SDS011;59348;52.158;5.588;2023-04-24T07:00:13;8.30;;;5.57;;
22250;SDS011;59348;52.158;5.588;2023-04-24T07:02:40;9.13;;;6.95;;
22250;SDS011;59348;52.158;5.588;2023-04-24T07:05:08;10.65;;;7.85;;
22250;SDS011;59348;52.158;5.588;2023-04-24T07:07:37;13.38;;;9.90;;
22250;SDS011;59348;52.158;5.588;2023-04-24T07:10:05;15.20;;;10.85;;
22250;SDS011;59348;52.158;5.588;2023-04-24T07:12:33;17.40;;;11.85;;
22250;SDS011;59348;52.158;5.588;2023-04-24T07:15:01;19.50;;;11.48;;
22250;SDS011;59348;52.158;5.588;2023-04-24T07:17:28;17.95;;;12.15;;
22250;SDS011;59348;52.158;5.588;2023-04-24T07:19:55;16.70;;;11.60;;
22250;SDS011;59348;52.158;5.588;2023-04-24T07:22:23;17.83;;;12.38;;
22250;SDS011;59348;52.158;5.588;2023-04-24T07:24:51;16.08;;;11.45;;
22250;SDS011;59348;52.158;5.588;2023-04-24T07:27:19;18.08;;;11.68;;
22250;SDS011;59348;52.158;5.588;2023-04-24T07:29:46;19.10;;;12.50;;
22250;SDS011;59348;52.158;5.588;2023-04-24T07:32:13;21.75;;;13.10;;
22250;SDS011;59348;52.158;5.588;2023-04-24T07:34:41;21.42;;;12.93;;
22250;SDS011;59348;52.158;5.588;2023-04-24T07:37:08;19.88;;;13.70;;
22250;SDS011;59348;52.158;5.588;2023-04-24T07:39:36;21.40;;;14.90;;
22250;SDS011;59348;52.158;5.588;2023-04-24T07:42:10;24.83;;;14.88;;
22250;SDS011;59348;52.158;5.588;2023-04-24T07:44:38;23.95;;;14.20;;
22250;SDS011;59348;52.158;5.588;2023-04-24T07:47:05;26.10;;;14.02;;
22250;SDS011;59348;52.158;5.588;2023-04-24T07:49:37;23.80;;;14.68;;
22250;SDS011;59348;52.158;5.588;2023-04-24T07:52:13;21.88;;;14.88;;
22250;SDS011;59348;52.158;5.588;2023-04-24T07:54:41;25.48;;;12.73;;
22250;SDS011;59348;52.158;5.588;2023-04-24T07:57:11;19.00;;;12.30;;
22250;SDS011;59348;52.158;5.588;2023-04-24T07:59:48;27.75;;;12.88;;
22250;SDS011;59348;52.158;5.588;2023-04-24T08:02:52;23.63;;;12.32;;
22250;SDS011;59348;52.158;5.588;2023-04-24T08:05:35;23.70;;;11.60;;
22250;SDS011;59348;52.158;5.588;2023-04-24T08:26:08;23.02;;;12.60;;
22250;SDS011;59348;52.158;5.588;2023-04-24T08:28:58;28.23;;;12.63;;
22250;SDS011;59348;52.158;5.588;2023-04-24T08:31:27;25.00;;;12.52;;
22250;SDS011;59348;52.158;5.588;2023-04-24T08:33:55;13.88;;;7.78;;
22250;SDS011;59348;52.158;5.588;2023-04-24T08:36:22;17.73;;;8.38;;
22250;SDS011;59348;52.158;5.588;2023-04-24T08:38:49;15.00;;;9.00;;
22250;SDS011;59348;52.158;5.588;2023-04-24T08:41:18;20.60;;;8.70;;
22250;SDS011;59348;52.158;5.588;2023-04-24T08:43:46;20.45;;;8.27;;
22250;SDS011;59348;52.158;5.588;2023-04-24T08:46:14;17.58;;;8.60;;
22250;SDS011;59348;52.158;5.588;2023-04-24T08:48:42;20.67;;;7.43;;
22250;SDS011;59348;52.158;5.588;2023-04-24T08:51:10;19.67;;;7.75;;
22250;SDS011;59348;52.158;5.588;2023-04-24T08:53:37;16.15;;;6.10;;
22250;SDS011;59348;52.158;5.588;2023-04-24T08:56:05;19.38;;;6.30;;
22250;SDS011;59348;52.158;5.588;2023-04-24T08:58:33;15.88;;;5.72;;
22250;SDS011;59348;52.158;5.588;2023-04-24T09:01:02;20.23;;;5.05;;
22250;SDS011;59348;52.158;5.588;2023-04-24T09:03:29;12.00;;;4.78;;
22250;SDS011;59348;52.158;5.588;2023-04-24T09:05:58;16.13;;;4.95;;
22250;SDS011;59348;52.158;5.588;2023-04-24T09:08:26;16.52;;;5.88;;
22250;SDS011;59348;52.158;5.588;2023-04-24T09:10:54;20.23;;;6.20;;
22250;SDS011;59348;52.158;5.588;2023-04-24T09:13:23;21.20;;;6.05;;
22250;SDS011;59348;52.158;5.588;2023-04-24T09:15:52;21.83;;;5.88;;
22250;SDS011;59348;52.158;5.588;2023-04-24T09:18:22;18.45;;;5.70;;
22250;SDS011;59348;52.158;5.588;2023-04-24T09:20:57;19.80;;;6.20;;
22250;SDS011;59348;52.158;5.588;2023-04-24T09:23:25;22.98;;;5.18;;
22250;SDS011;59348;52.158;5.588;2023-04-24T09:25:54;19.38;;;5.00;;
22250;SDS011;59348;52.158;5.588;2023-04-24T09:28:25;18.17;;;4.40;;
22250;SDS011;59348;52.158;5.588;2023-04-24T09:31:02;17.08;;;3.55;;
22250;SDS011;59348;52.158;5.588;2023-04-24T09:33:30;12.23;;;3.42;;
22250;SDS011;59348;52.158;5.588;2023-04-24T09:36:10;12.43;;;3.30;;
22250;SDS011;59348;52.158;5.588;2023-04-24T09:38:40;16.15;;;3.38;;
22250;SDS011;59348;52.158;5.588;2023-04-24T09:41:08;11.77;;;2.78;;
22250;SDS011;59348;52.158;5.588;2023-04-24T09:43:35;11.23;;;3.00;;
22250;SDS011;59348;52.158;5.588;2023-04-24T09:46:06;11.13;;;3.00;;
22250;SDS011;59348;52.158;5.588;2023-04-24T09:48:34;9.40;;;2.70;;
22250;SDS011;59348;52.158;5.588;2023-04-24T09:51:02;11.00;;;3.00;;
22250;SDS011;59348;52.158;5.588;2023-04-24T09:53:32;10.95;;;2.53;;
22250;SDS011;59348;52.158;5.588;2023-04-24T09:56:06;9.65;;;2.70;;
22250;SDS011;59348;52.158;5.588;2023-04-24T09:58:34;11.60;;;3.22;;
22250;SDS011;59348;52.158;5.588;2023-04-24T10:01:02;12.02;;;2.95;;
22250;SDS011;59348;52.158;5.588;2023-04-24T10:03:30;13.57;;;3.05;;
22250;SDS011;59348;52.158;5.588;2023-04-24T10:05:58;9.93;;;3.17;;
22250;SDS011;59348;52.158;5.588;2023-04-24T10:08:26;11.90;;;2.85;;
22250;SDS011;59348;52.158;5.588;2023-04-24T10:10:53;13.48;;;3.47;;
22250;SDS011;59348;52.158;5.588;2023-04-24T10:13:20;11.38;;;3.15;;
22250;SDS011;59348;52.158;5.588;2023-04-24T10:15:48;12.98;;;2.92;;
22250;SDS011;59348;52.158;5.588;2023-04-24T10:18:16;13.80;;;3.40;;
22250;SDS011;59348;52.158;5.588;2023-04-24T10:20:45;11.10;;;2.80;;
22250;SDS011;59348;52.158;5.588;2023-04-24T10:23:12;15.40;;;3.00;;
22250;SDS011;59348;52.158;5.588;2023-04-24T10:25:39;10.48;;;2.80;;
22250;SDS011;59348;52.158;5.588;2023-04-24T10:28:07;13.20;;;3.10;;
22250;SDS011;59348;52.158;5.588;2023-04-24T10:30:35;14.35;;;3.13;;
22250;SDS011;59348;52.158;5.588;2023-04-24T10:33:03;7.57;;;2.70;;
22250;SDS011;59348;52.158;5.588;2023-04-24T10:35:30;13.10;;;2.60;;
22250;SDS011;59348;52.158;5.588;2023-04-24T10:38:01;11.07;;;2.40;;
22250;SDS011;59348;52.158;5.588;2023-04-24T10:40:31;8.18;;;2.10;;
22250;SDS011;59348;52.158;5.588;2023-04-24T10:42:59;6.40;;;1.73;;
22250;SDS011;59348;52.158;5.588;2023-04-24T10:45:26;5.45;;;1.90;;
22250;SDS011;59348;52.158;5.588;2023-04-24T10:47:57;5.03;;;1.90;;
22250;SDS011;59348;52.158;5.588;2023-04-24T10:50:26;6.82;;;1.60;;
22250;SDS011;59348;52.158;5.588;2023-04-24T10:52:55;4.50;;;1.70;;
22250;SDS011;59348;52.158;5.588;2023-04-24T10:55:43;6.32;;;1.70;;
22250;SDS011;59348;52.158;5.588;2023-04-24T10:58:11;7.03;;;1.40;;
22250;SDS011;59348;52.158;5.588;2023-04-24T11:00:40;6.80;;;1.50;;
22250;SDS011;59348;52.158;5.588;2023-04-24T11:03:18;5.30;;;1.25;;
22250;SDS011;59348;52.158;5.588;2023-04-24T11:05:52;4.80;;;1.48;;
22250;SDS011;59348;52.158;5.588;2023-04-24T11:08:27;5.30;;;1.33;;
22250;SDS011;59348;52.158;5.588;2023-04-24T11:10:57;3.38;;;1.30;;
22250;SDS011;59348;52.158;5.588;2023-04-24T11:13:26;6.40;;;1.55;;
22250;SDS011;59348;52.158;5.588;2023-04-24T11:18:37;4.53;;;1.55;;
22250;SDS011;59348;52.158;5.588;2023-04-24T11:21:09;6.18;;;1.20;;
22250;SDS011;59348;52.158;5.588;2023-04-24T11:23:37;5.38;;;1.50;;
22250;SDS011;59348;52.158;5.588;2023-04-24T11:26:11;6.32;;;1.80;;
22250;SDS011;59348;52.158;5.588;2023-04-24T11:28:44;6.80;;;1.58;;
22250;SDS011;59348;52.158;5.588;2023-04-24T11:33:53;6.10;;;1.52;;
22250;SDS011;59348;52.158;5.588;2023-04-24T11:36:20;4.95;;;1.30;;
22250;SDS011;59348;52.158;5.588;2023-04-24T11:38:48;6.63;;;1.42;;
22250;SDS011;59348;52.158;5.588;2023-04-24T11:41:16;4.40;;;1.17;;
22250;SDS011;59348;52.158;5.588;2023-04-24T11:43:45;7.38;;;1.40;;
22250;SDS011;59348;52.158;5.588;2023-04-24T11:46:16;5.13;;;1.40;;
22250;SDS011;59348;52.158;5.588;2023-04-24T11:48:44;6.57;;;1.45;;
22250;SDS011;59348;52.158;5.588;2023-04-24T11:51:12;5.63;;;1.50;;
22250;SDS011;59348;52.158;5.588;2023-04-24T11:53:40;5.25;;;1.40;;
22250;SDS011;59348;52.158;5.588;2023-04-24T11:56:08;3.38;;;1.08;;
22250;SDS011;59348;52.158;5.588;2023-04-24T11:58:37;5.75;;;1.35;;
22250;SDS011;59348;52.158;5.588;2023-04-24T12:01:05;4.50;;;1.15;;
22250;SDS011;59348;52.158;5.588;2023-04-24T12:03:32;6.38;;;1.30;;
22250;SDS011;59348;52.158;5.588;2023-04-24T12:06:04;5.40;;;1.40;;
22250;SDS011;59348;52.158;5.588;2023-04-24T12:08:32;4.75;;;1.27;;
22250;SDS011;59348;52.158;5.588;2023-04-24T12:11:00;2.47;;;0.70;;
22250;SDS011;59348;52.158;5.588;2023-04-24T12:13:27;4.25;;;0.88;;
22250;SDS011;59348;52.158;5.588;2023-04-24T12:15:56;3.78;;;0.90;;
22250;SDS011;59348;52.158;5.588;2023-04-24T12:18:24;0.95;;;0.45;;
22250;SDS011;59348;52.158;5.588;2023-04-24T12:20:51;1.83;;;0.60;;
22250;SDS011;59348;52.158;5.588;2023-04-24T12:23:32;2.78;;;0.75;;
22250;SDS011;59348;52.158;5.588;2023-04-24T12:26:00;3.08;;;0.80;;
22250;SDS011;59348;52.158;5.588;2023-04-24T12:28:34;3.25;;;0.80;;
22250;SDS011;59348;52.158;5.588;2023-04-24T12:31:03;2.80;;;0.98;;
22250;SDS011;59348;52.158;5.588;2023-04-24T12:33:32;4.03;;;1.05;;
22250;SDS011;59348;52.158;5.588;2023-04-24T12:36:00;4.60;;;1.20;;
22250;SDS011;59348;52.158;5.588;2023-04-24T12:38:28;5.40;;;1.10;;
22250;SDS011;59348;52.158;5.588;2023-04-24T12:41:03;4.82;;;1.13;;
22250;SDS011;59348;52.158;5.588;2023-04-24T12:43:31;3.08;;;1.00;;
22250;SDS011;59348;52.158;5.588;2023-04-24T12:45:58;5.68;;;1.30;;
22250;SDS011;59348;52.158;5.588;2023-04-24T12:48:27;5.78;;;1.10;;
22250;SDS011;59348;52.158;5.588;2023-04-24T12:50:54;5.22;;;1.10;;
22250;SDS011;59348;52.158;5.588;2023-04-24T12:53:21;6.97;;;1.20;;
22250;SDS011;59348;52.158;5.588;2023-04-24T12:55:51;4.38;;;1.30;;
22250;SDS011;59348;52.158;5.588;2023-04-24T12:58:19;6.93;;;1.40;;
22250;SDS011;59348;52.158;5.588;2023-04-24T13:00:46;9.02;;;1.48;;
22250;SDS011;59348;52.158;5.588;2023-04-24T13:03:14;6.15;;;1.50;;
22250;SDS011;59348;52.158;5.588;2023-04-24T13:05:43;8.32;;;1.60;;
22250;SDS011;59348;52.158;5.588;2023-04-24T13:08:10;7.03;;;2.00;;
22250;SDS011;59348;52.158;5.588;2023-04-24T13:10:38;7.82;;;2.13;;
22250;SDS011;59348;52.158;5.588;2023-04-24T13:13:06;7.20;;;1.83;;
22250;SDS011;59348;52.158;5.588;2023-04-24T13:15:33;8.70;;;1.73;;
22250;SDS011;59348;52.158;5.588;2023-04-24T13:18:00;9.15;;;2.10;;
22250;SDS011;59348;52.158;5.588;2023-04-24T13:20:28;9.52;;;2.45;;
22250;SDS011;59348;52.158;5.588;2023-04-24T13:22:56;13.40;;;3.00;;
22250;SDS011;59348;52.158;5.588;2023-04-24T13:25:23;14.40;;;3.08;;
22250;SDS011;59348;52.158;5.588;2023-04-24T13:27:52;15.98;;;3.22;;
22250;SDS011;59348;52.158;5.588;2023-04-24T13:30:19;13.10;;;3.05;;
22250;SDS011;59348;52.158;5.588;2023-04-24T13:32:46;15.45;;;3.10;;
22250;SDS011;59348;52.158;5.588;2023-04-24T13:35:13;14.15;;;2.80;;
22250;SDS011;59348;52.158;5.588;2023-04-24T13:37:41;10.65;;;2.67;;
22250;SDS011;59348;52.158;5.588;2023-04-24T13:40:10;10.40;;;2.78;;
22250;SDS011;59348;52.158;5.588;2023-04-24T13:42:37;13.45;;;2.75;;
22250;SDS011;59348;52.158;5.588;2023-04-24T13:45:05;13.13;;;2.78;;
22250;SDS011;59348;52.158;5.588;2023-04-24T13:47:32;14.27;;;2.80;;
22250;SDS011;59348;52.158;5.588;2023-04-24T13:50:00;9.95;;;2.50;;
22250;SDS011;59348;52.158;5.588;2023-04-24T13:52:27;11.32;;;2.65;;
22250;SDS011;59348;52.158;5.588;2023-04-24T13:54:55;12.10;;;2.20;;
22250;SDS011;59348;52.158;5.588;2023-04-24T13:57:23;12.38;;;2.80;;
22250;SDS011;59348;52.158;5.588;2023-04-24T13:59:51;12.25;;;2.90;;
22250;SDS011;59348;52.158;5.588;2023-04-24T14:02:18;10.32;;;2.88;;
22250;SDS011;59348;52.158;5.588;2023-04-24T14:04:45;12.50;;;2.83;;
22250;SDS011;59348;52.158;5.588;2023-04-24T14:07:13;11.63;;;2.80;;
22250;SDS011;59348;52.158;5.588;2023-04-24T14:09:40;13.98;;;2.83;;
22250;SDS011;59348;52.158;5.588;2023-04-24T14:12:07;9.63;;;2.63;;
22250;SDS011;59348;52.158;5.588;2023-04-24T14:14:36;11.70;;;3.10;;
22250;SDS011;59348;52.158;5.588;2023-04-24T14:17:03;8.35;;;2.80;;
22250;SDS011;59348;52.158;5.588;2023-04-24T14:19:31;10.52;;;2.90;;
22250;SDS011;59348;52.158;5.588;2023-04-24T14:21:59;10.43;;;3.05;;
22250;SDS011;59348;52.158;5.588;2023-04-24T14:24:26;14.38;;;2.90;;
22250;SDS011;59348;52.158;5.588;2023-04-24T14:26:53;8.15;;;2.53;;
22250;SDS011;59348;52.158;5.588;2023-04-24T14:29:21;8.80;;;2.55;;
22250;SDS011;59348;52.158;5.588;2023-04-24T14:31:50;13.45;;;2.75;;
22250;SDS011;59348;52.158;5.588;2023-04-24T14:34:17;13.18;;;3.03;;
22250;SDS011;59348;52.158;5.588;2023-04-24T14:36:45;11.23;;;3.08;;
22250;SDS011;59348;52.158;5.588;2023-04-24T14:39:12;11.90;;;3.28;;
22250;SDS011;59348;52.158;5.588;2023-04-24T14:41:39;12.15;;;3.20;;
22250;SDS011;59348;52.158;5.588;2023-04-24T14:44:07;12.77;;;2.97;;
22250;SDS011;59348;52.158;5.588;2023-04-24T14:46:34;12.40;;;3.30;;
22250;SDS011;59348;52.158;5.588;2023-04-24T14:49:03;12.50;;;3.28;;
22250;SDS011;59348;52.158;5.588;2023-04-24T14:51:30;12.63;;;3.42;;
22250;SDS011;59348;52.158;5.588;2023-04-24T14:53:57;14.02;;;3.25;;
22250;SDS011;59348;52.158;5.588;2023-04-24T14:56:25;12.30;;;3.42;;
22250;SDS011;59348;52.158;5.588;2023-04-24T14:58:52;13.80;;;3.70;;
22250;SDS011;59348;52.158;5.588;2023-04-24T15:01:19;10.90;;;3.05;;
22250;SDS011;59348;52.158;5.588;2023-04-24T15:03:47;14.43;;;2.92;;
22250;SDS011;59348;52.158;5.588;2023-04-24T15:06:15;14.18;;;3.22;;
22250;SDS011;59348;52.158;5.588;2023-04-24T15:08:43;14.93;;;3.45;;
22250;SDS011;59348;52.158;5.588;2023-04-24T15:11:10;11.00;;;3.00;;
22250;SDS011;59348;52.158;5.588;2023-04-24T15:13:37;12.60;;;2.90;;